createdAt,value
2023-02-28T00:01:43.835Z,100270.53
2023-02-28T00:04:12.151Z,100274.59
2023-02-28T00:06:40.163Z,100271.34
2023-02-28T00:09:08.143Z,100275.75
2023-02-28T00:11:36.545Z,100286.84
2023-02-28T00:14:04.514Z,100285.88
2023-02-28T00:16:32.622Z,100289.00
2023-02-28T00:19:00.903Z,100288.59
2023-02-28T00:21:29.147Z,100286.16
2023-02-28T00:23:57.294Z,100284.16
2023-02-28T00:26:25.675Z,100290.03
2023-02-28T00:28:54.422Z,100291.84
2023-02-28T00:31:24.259Z,100291.78
2023-02-28T00:33:53.051Z,100290.16
2023-02-28T00:36:22.362Z,100302.22
2023-02-28T00:38:50.402Z,100304.16
2023-02-28T00:41:18.858Z,100304.13
2023-02-28T00:43:49.042Z,100304.16
2023-02-28T00:46:17.108Z,100309.38
2023-02-28T00:48:45.441Z,100307.12
2023-02-28T00:51:13.556Z,100311.94
2023-02-28T00:53:41.622Z,100319.34
2023-02-28T00:56:10.263Z,100314.44
2023-02-28T00:58:38.241Z,100310.69
2023-02-28T01:01:06.426Z,100302.06
2023-02-28T01:03:34.850Z,100306.69
2023-02-28T01:06:02.872Z,100306.09
2023-02-28T01:08:30.797Z,100302.28
2023-02-28T01:10:59.183Z,100309.31
2023-02-28T01:13:27.162Z,100307.09
2023-02-28T01:15:57.517Z,100306.31
2023-02-28T01:18:26.922Z,100307.06
2023-02-28T01:20:54.955Z,100306.97
2023-02-28T01:23:24.800Z,100310.19
2023-02-28T01:25:53.682Z,100308.94
2023-02-28T01:28:22.464Z,100305.37
2023-02-28T01:30:52.359Z,100308.28
2023-02-28T01:33:20.902Z,100305.44
2023-02-28T01:35:48.906Z,100306.69
2023-02-28T01:38:22.681Z,100296.53
2023-02-28T01:40:52.082Z,100298.44
2023-02-28T01:43:31.650Z,100296.75
2023-02-28T01:46:00.607Z,100303.69
2023-02-28T01:48:56.658Z,100295.97
2023-02-28T01:51:35.646Z,100303.03
2023-02-28T01:54:14.856Z,100301.66
2023-02-28T01:56:47.575Z,100302.91
2023-02-28T01:59:21.677Z,100299.06
2023-02-28T02:01:50.292Z,100299.31
2023-02-28T02:04:21.776Z,100303.16
2023-02-28T02:06:50.027Z,100301.09
2023-02-28T02:09:18.319Z,100304.31
2023-02-28T02:11:46.906Z,100300.28
2023-02-28T02:14:18.386Z,100293.88
2023-02-28T02:16:55.213Z,100298.25
2023-02-28T02:19:56.495Z,100292.47
2023-02-28T02:22:39.397Z,100292.81
2023-02-28T02:25:14.108Z,100291.25
2023-02-28T02:28:16.096Z,100301.87
2023-02-28T02:31:03.021Z,100291.87
2023-02-28T02:34:05.117Z,100291.94
2023-02-28T02:36:37.505Z,100289.38
2023-02-28T02:39:14.450Z,100290.50
2023-02-28T02:41:53.982Z,100288.56
2023-02-28T02:44:24.228Z,100286.62
2023-02-28T02:46:57.019Z,100292.00
2023-02-28T02:49:33.195Z,100293.06
2023-02-28T02:52:06.205Z,100295.84
2023-02-28T02:54:37.089Z,100295.03
2023-02-28T02:57:13.065Z,100293.19
2023-02-28T02:59:43.803Z,100296.00
2023-02-28T03:02:14.457Z,100297.72
2023-02-28T03:04:50.225Z,100293.50
2023-02-28T03:07:18.653Z,100297.87
2023-02-28T03:09:55.019Z,100297.84
2023-02-28T03:12:28.970Z,100302.63
2023-02-28T03:15:06.906Z,100303.03
2023-02-28T03:18:08.155Z,100303.22
2023-02-28T03:21:36.271Z,100304.63
2023-02-28T03:24:16.098Z,100303.09
2023-02-28T03:26:52.880Z,100301.37
2023-02-28T03:29:30.538Z,100303.69
2023-02-28T03:32:07.969Z,100304.16
2023-02-28T03:34:43.160Z,100304.34
2023-02-28T03:37:15.187Z,100310.50
2023-02-28T03:40:00.719Z,100305.19
2023-02-28T03:42:31.273Z,100299.88
2023-02-28T03:45:02.137Z,100306.00
2023-02-28T03:47:34.463Z,100301.13
2023-02-28T03:50:14.661Z,100311.16
2023-02-28T03:53:06.412Z,100308.63
2023-02-28T03:55:42.302Z,100304.56
2023-02-28T03:58:30.228Z,100309.19
2023-02-28T04:01:09.309Z,100303.03
2023-02-28T04:03:38.730Z,100304.16
2023-02-28T04:06:09.408Z,100302.03
2023-02-28T04:08:37.741Z,100302.28
2023-02-28T04:11:14.292Z,100296.91
2023-02-28T04:13:42.720Z,100294.66
2023-02-28T04:16:24.524Z,100294.66
2023-02-28T04:19:03.429Z,100300.97
2023-02-28T04:21:37.475Z,100294.72
2023-02-28T04:24:06.930Z,100293.53
2023-02-28T04:26:37.347Z,100298.78
2023-02-28T04:29:06.928Z,100297.13
2023-02-28T04:31:35.582Z,100290.16
2023-02-28T04:34:03.887Z,100291.16
2023-02-28T04:36:33.086Z,100296.78
2023-02-28T04:39:01.220Z,100301.09
2023-02-28T04:41:32.321Z,100288.37
2023-02-28T04:44:00.930Z,100290.19
2023-02-28T04:46:28.949Z,100297.16
2023-02-28T04:48:57.138Z,100295.78
2023-02-28T04:51:25.722Z,100298.19
2023-02-28T04:53:53.790Z,100293.09
2023-02-28T04:56:21.891Z,100288.47
2023-02-28T04:58:50.420Z,100304.03
2023-02-28T05:01:26.015Z,100291.66
2023-02-28T05:03:56.428Z,100286.44
2023-02-28T05:06:28.092Z,100291.03
2023-02-28T05:08:56.666Z,100292.41
2023-02-28T05:11:36.305Z,100292.00
2023-02-28T05:14:12.129Z,100294.78
2023-02-28T05:16:40.582Z,100290.47
2023-02-28T05:19:09.108Z,100291.16
2023-02-28T05:21:39.923Z,100299.03
2023-02-28T05:24:11.777Z,100296.03
2023-02-28T05:26:42.616Z,100303.66
2023-02-28T05:29:11.609Z,100313.03
2023-02-28T05:31:39.802Z,100313.16
2023-02-28T05:34:08.135Z,100315.06
2023-02-28T05:36:38.454Z,100312.72
2023-02-28T05:39:08.854Z,100317.34
2023-02-28T05:41:37.129Z,100321.63
2023-02-28T05:44:05.378Z,100317.66
2023-02-28T05:46:33.407Z,100317.47
2023-02-28T05:49:02.118Z,100324.50
2023-02-28T05:51:30.815Z,100322.25
2023-02-28T05:54:02.843Z,100327.41
2023-02-28T05:56:31.310Z,100333.22
2023-02-28T05:58:59.358Z,100332.94
2023-02-28T06:01:36.975Z,100332.37
2023-02-28T06:04:07.193Z,100334.88
2023-02-28T06:06:38.292Z,100331.87
2023-02-28T06:09:06.801Z,100332.13
2023-02-28T06:11:35.272Z,100333.56
2023-02-28T06:14:03.781Z,100333.38
2023-02-28T06:16:34.387Z,100332.88
2023-02-28T06:19:04.971Z,100334.69
2023-02-28T06:21:33.780Z,100338.75
2023-02-28T06:24:02.261Z,100335.00
2023-02-28T06:26:30.496Z,100336.53
2023-02-28T06:28:59.016Z,100344.66
2023-02-28T06:31:27.282Z,100349.03
2023-02-28T06:33:57.162Z,100346.25
2023-02-28T06:36:25.682Z,100344.94
2023-02-28T06:38:55.935Z,100355.47
2023-02-28T06:41:28.455Z,100356.53
2023-02-28T06:43:57.161Z,100362.06
2023-02-28T06:46:25.190Z,100356.56
2023-02-28T06:48:53.232Z,100354.78
2023-02-28T06:51:23.538Z,100354.00
2023-02-28T06:53:52.392Z,100352.19
2023-02-28T06:56:21.570Z,100358.28
2023-02-28T06:58:51.282Z,100357.59
2023-02-28T07:01:20.243Z,100355.53
2023-02-28T07:03:53.397Z,100364.97
2023-02-28T07:06:23.868Z,100357.94
2023-02-28T07:08:53.929Z,100362.28
2023-02-28T07:11:26.835Z,100364.19
2023-02-28T07:13:56.229Z,100370.16
2023-02-28T07:16:26.117Z,100366.16
2023-02-28T07:18:55.260Z,100370.72
2023-02-28T07:21:23.766Z,100371.19
2023-02-28T07:23:52.725Z,100370.81
2023-02-28T07:26:21.769Z,100374.69
2023-02-28T07:28:50.034Z,100369.53
2023-02-28T07:31:19.698Z,100374.34
2023-02-28T07:33:47.732Z,100379.84
2023-02-28T07:36:18.333Z,100383.78
2023-02-28T07:38:49.429Z,100374.56
2023-02-28T07:41:19.053Z,100377.53
2023-02-28T07:43:47.462Z,100384.31
2023-02-28T07:46:17.181Z,100382.47
2023-02-28T07:48:45.807Z,100391.47
2023-02-28T07:51:14.373Z,100388.22
2023-02-28T07:53:42.385Z,100389.06
2023-02-28T07:56:11.940Z,100391.44
2023-02-28T07:58:40.259Z,100387.91
2023-02-28T08:01:11.324Z,100382.13
2023-02-28T08:03:40.694Z,100386.09
2023-02-28T08:06:13.357Z,100383.03
2023-02-28T08:08:41.824Z,100386.34
2023-02-28T08:11:09.819Z,100369.59
2023-02-28T08:13:39.352Z,100368.66
2023-02-28T08:16:07.795Z,100374.44
2023-02-28T08:18:37.098Z,100372.94
2023-02-28T08:21:09.670Z,100382.41
2023-02-28T08:23:38.185Z,100369.16
2023-02-28T08:26:06.172Z,100377.97
2023-02-28T08:28:35.751Z,100368.81
2023-02-28T08:31:09.294Z,100370.19
2023-02-28T08:33:37.983Z,100367.78
2023-02-28T08:36:07.255Z,100366.69
2023-02-28T08:38:38.354Z,100366.72
2023-02-28T08:41:10.120Z,100367.94
2023-02-28T08:43:38.854Z,100368.16
2023-02-28T08:46:08.162Z,100367.94
2023-02-28T08:48:40.381Z,100384.97
2023-02-28T08:51:11.529Z,100377.75
2023-02-28T08:53:40.831Z,100376.94
2023-02-28T08:56:14.187Z,100377.41
2023-02-28T08:58:43.411Z,100368.78
2023-02-28T09:01:14.005Z,100375.63
2023-02-28T09:03:43.163Z,100370.06
2023-02-28T09:06:12.814Z,100370.25
2023-02-28T09:08:41.110Z,100375.31
2023-02-28T09:11:10.240Z,100369.91
2023-02-28T09:13:39.341Z,100374.72
2023-02-28T09:16:09.507Z,100376.91
2023-02-28T09:18:38.625Z,100369.25
2023-02-28T09:21:14.776Z,100365.06
2023-02-28T09:23:45.374Z,100368.12
2023-02-28T09:26:15.957Z,100366.41
2023-02-28T09:28:44.348Z,100372.91
2023-02-28T09:31:22.196Z,100371.84
2023-02-28T09:33:52.409Z,100376.91
2023-02-28T09:36:23.240Z,100374.66
2023-02-28T09:38:52.647Z,100380.53
2023-02-28T09:41:23.291Z,100383.06
2023-02-28T09:43:54.859Z,100380.53
2023-02-28T09:46:32.903Z,100385.41
2023-02-28T09:49:09.133Z,100374.88
2023-02-28T09:51:43.692Z,100382.81
2023-02-28T09:54:21.381Z,100374.38
2023-02-28T09:56:57.748Z,100381.34
2023-02-28T09:59:38.027Z,100379.00
2023-02-28T10:02:21.528Z,100368.66
2023-02-28T10:04:58.864Z,100362.37
2023-02-28T10:07:56.228Z,100360.50
2023-02-28T10:10:29.741Z,100359.25
2023-02-28T10:13:00.976Z,100361.16
2023-02-28T10:15:33.574Z,100361.56
2023-02-28T10:18:09.416Z,100354.63
2023-02-28T10:20:39.088Z,100359.28
2023-02-28T10:23:13.179Z,100355.37
2023-02-28T10:25:42.235Z,100352.47
2023-02-28T10:28:15.667Z,100354.25
2023-02-28T10:30:51.605Z,100349.25
2023-02-28T10:33:33.126Z,100346.06
2023-02-28T10:36:03.105Z,100347.00
2023-02-28T10:38:37.382Z,100353.38
2023-02-28T10:41:11.494Z,100339.81
2023-02-28T10:43:41.194Z,100336.38
2023-02-28T10:46:09.742Z,100333.13
2023-02-28T10:49:00.493Z,100331.84
2023-02-28T10:51:36.741Z,100335.53
2023-02-28T10:54:07.514Z,100326.41
2023-02-28T10:56:36.308Z,100330.34
2023-02-28T10:59:34.513Z,100337.31
2023-02-28T11:02:06.764Z,100331.19
2023-02-28T11:04:37.945Z,100332.66
2023-02-28T11:07:09.494Z,100334.53
2023-02-28T11:09:44.509Z,100325.66
2023-02-28T11:12:47.091Z,100331.22
2023-02-28T11:15:30.892Z,100326.47
2023-02-28T11:18:14.952Z,100329.19
2023-02-28T11:20:43.445Z,100327.16
2023-02-28T11:23:15.176Z,100337.31
2023-02-28T11:25:52.145Z,100323.94
2023-02-28T11:28:29.552Z,100319.69
2023-02-28T11:31:18.550Z,100323.03
2023-02-28T11:33:55.624Z,100320.66
2023-02-28T11:36:30.311Z,100323.12
2023-02-28T11:39:04.545Z,100324.69
2023-02-28T11:41:44.226Z,100325.41
2023-02-28T11:44:37.857Z,100322.50
2023-02-28T11:47:41.508Z,100313.53
2023-02-28T11:50:20.315Z,100316.59
2023-02-28T11:53:12.114Z,100311.91
2023-02-28T11:55:44.112Z,100310.66
2023-02-28T11:58:31.498Z,100308.88
2023-02-28T12:01:26.119Z,100307.50
2023-02-28T12:04:06.000Z,100303.16
2023-02-28T12:06:35.555Z,100296.81
2023-02-28T12:09:15.578Z,100296.44
2023-02-28T12:11:55.077Z,100290.75
2023-02-28T12:14:43.518Z,100293.59
2023-02-28T12:17:40.096Z,100285.75
2023-02-28T12:20:33.344Z,100283.34
2023-02-28T12:23:19.688Z,100285.09
2023-02-28T12:25:55.518Z,100282.69
2023-02-28T12:28:27.628Z,100277.19
2023-02-28T12:31:01.509Z,100270.31
2023-02-28T12:33:44.117Z,100269.44
2023-02-28T12:36:20.123Z,100270.91
2023-02-28T12:38:58.478Z,100267.41
2023-02-28T12:41:36.161Z,100252.75
2023-02-28T12:44:12.731Z,100267.47
2023-02-28T12:46:44.115Z,100269.38
2023-02-28T12:49:26.995Z,100257.91
2023-02-28T12:51:55.419Z,100268.19
2023-02-28T12:54:32.613Z,100252.31
2023-02-28T12:57:06.920Z,100253.44
2023-02-28T12:59:51.054Z,100255.59
2023-02-28T13:03:02.064Z,100249.69
2023-02-28T13:05:48.041Z,100253.06
2023-02-28T13:09:01.658Z,100247.16
2023-02-28T13:11:35.867Z,100247.91
2023-02-28T13:14:10.680Z,100249.69
2023-02-28T13:17:03.716Z,100241.91
2023-02-28T13:19:35.016Z,100248.44
2023-02-28T13:22:03.993Z,100237.28
2023-02-28T13:24:44.248Z,100235.47
2023-02-28T13:27:27.606Z,100234.78
2023-02-28T13:29:56.070Z,100229.91
2023-02-28T13:32:28.656Z,100230.81
2023-02-28T13:34:57.253Z,100228.66
2023-02-28T13:37:25.736Z,100230.47
2023-02-28T13:39:57.119Z,100225.56
2023-02-28T13:42:38.605Z,100232.19
2023-02-28T13:45:07.580Z,100227.06
2023-02-28T13:47:50.573Z,100230.13
2023-02-28T13:50:29.648Z,100227.78
2023-02-28T13:53:16.341Z,100227.72
2023-02-28T13:56:19.800Z,100226.38
2023-02-28T13:59:14.217Z,100218.34
2023-02-28T14:02:20.413Z,100227.69
2023-02-28T14:04:55.337Z,100224.03
2023-02-28T14:07:28.692Z,100219.81
2023-02-28T14:10:06.946Z,100220.37
2023-02-28T14:12:57.711Z,100213.78
2023-02-28T14:15:45.868Z,100229.16
2023-02-28T14:18:27.624Z,100212.44
2023-02-28T14:21:19.016Z,100216.09
2023-02-28T14:24:25.973Z,100212.28
2023-02-28T14:27:16.054Z,100199.31
2023-02-28T14:29:56.199Z,100204.66
2023-02-28T14:32:48.972Z,100208.19
2023-02-28T14:35:48.089Z,100202.38
2023-02-28T14:38:29.428Z,100199.31
2023-02-28T14:40:58.891Z,100194.91
2023-02-28T14:43:29.354Z,100197.56
2023-02-28T14:45:59.712Z,100194.19
2023-02-28T14:48:28.515Z,100193.84
2023-02-28T14:51:02.751Z,100200.28
2023-02-28T14:53:37.031Z,100202.09
2023-02-28T14:56:05.588Z,100206.09
2023-02-28T14:58:36.064Z,100200.88
2023-02-28T15:01:07.646Z,100206.41
2023-02-28T15:03:37.230Z,100207.00
2023-02-28T15:06:14.527Z,100208.91
2023-02-28T15:08:43.001Z,100204.41
2023-02-28T15:11:20.178Z,100204.97
2023-02-28T15:13:58.906Z,100213.53
2023-02-28T15:16:33.080Z,100209.34
2023-02-28T15:19:04.568Z,100211.34
2023-02-28T15:21:36.320Z,100206.37
2023-02-28T15:24:14.311Z,100202.50
2023-02-28T15:26:44.873Z,100203.25
2023-02-28T15:29:25.751Z,100197.13
2023-02-28T15:32:01.890Z,100199.97
2023-02-28T15:34:44.632Z,100199.00
2023-02-28T15:37:49.748Z,100209.38
2023-02-28T15:40:33.495Z,100200.78
2023-02-28T15:43:08.075Z,100196.87
2023-02-28T15:45:48.902Z,100192.66
2023-02-28T15:48:23.870Z,100196.87
2023-02-28T15:51:02.772Z,100203.03
2023-02-28T15:53:33.890Z,100201.56
2023-02-28T15:56:08.844Z,100195.41
2023-02-28T15:58:38.274Z,100199.91
2023-02-28T16:01:09.835Z,100200.50
2023-02-28T16:03:52.788Z,100199.84
2023-02-28T16:06:28.176Z,100195.56
2023-02-28T16:08:57.726Z,100194.94
2023-02-28T16:11:25.974Z,100197.88
2023-02-28T16:13:55.676Z,100196.28
2023-02-28T16:16:25.559Z,100198.66
2023-02-28T16:18:54.195Z,100207.03
2023-02-28T16:21:22.367Z,100209.87
2023-02-28T16:23:50.776Z,100208.28
2023-02-28T16:26:25.526Z,100221.47
2023-02-28T16:28:53.974Z,100217.63
2023-02-28T16:31:22.211Z,100221.69
2023-02-28T16:33:50.256Z,100220.56
2023-02-28T16:36:22.232Z,100222.12
2023-02-28T16:38:51.654Z,100224.25
2023-02-28T16:41:25.336Z,100226.13
2023-02-28T16:43:59.865Z,100224.59
2023-02-28T16:46:36.898Z,100227.84
2023-02-28T16:49:04.713Z,100232.84
2023-02-28T16:51:35.564Z,100234.44
2023-02-28T16:54:04.114Z,100243.53
2023-02-28T16:56:33.796Z,100249.16
2023-02-28T16:59:03.261Z,100239.16
2023-02-28T17:01:32.506Z,100243.38
2023-02-28T17:04:01.347Z,100242.19
2023-02-28T17:06:31.226Z,100240.91
2023-02-28T17:09:01.768Z,100246.66
2023-02-28T17:14:55.565Z,100251.75
2023-02-28T17:17:28.066Z,100255.72
2023-02-28T17:19:58.015Z,100255.75
2023-02-28T17:22:27.241Z,100262.25
2023-02-28T17:24:58.870Z,100258.78
2023-02-28T17:27:28.473Z,100256.19
2023-02-28T17:29:56.560Z,100255.06
2023-02-28T17:32:25.201Z,100257.97
2023-02-28T17:34:53.708Z,100256.12
2023-02-28T17:37:21.825Z,100251.75
2023-02-28T17:39:50.021Z,100257.50
2023-02-28T17:42:18.841Z,100259.16
2023-02-28T17:44:47.630Z,100253.87
2023-02-28T17:47:15.741Z,100258.41
2023-02-28T17:49:44.331Z,100264.25
2023-02-28T17:52:12.344Z,100248.78
2023-02-28T17:54:40.345Z,100250.75
2023-02-28T17:57:14.489Z,100263.97
2023-02-28T17:59:43.313Z,100261.84
2023-02-28T18:02:14.111Z,100258.69
2023-02-28T18:04:42.631Z,100266.47
2023-02-28T18:07:12.592Z,100264.94
2023-02-28T18:09:40.662Z,100264.37
2023-02-28T18:12:09.747Z,100270.94
2023-02-28T18:14:37.995Z,100273.19
2023-02-28T18:17:06.113Z,100275.81
2023-02-28T18:19:34.514Z,100274.78
2023-02-28T18:22:02.619Z,100274.09
2023-02-28T18:24:30.673Z,100272.16
2023-02-28T18:26:59.283Z,100277.91
2023-02-28T18:29:28.851Z,100279.25
2023-02-28T18:31:57.310Z,100285.03
2023-02-28T18:34:26.627Z,100278.75
2023-02-28T18:36:54.700Z,100277.94
2023-02-28T18:39:22.725Z,100279.22
2023-02-28T18:41:51.375Z,100276.81
2023-02-28T18:44:20.873Z,100278.25
2023-02-28T18:46:50.502Z,100287.25
2023-02-28T18:49:19.139Z,100278.28
2023-02-28T18:51:47.994Z,100275.72
2023-02-28T18:54:16.979Z,100271.22
2023-02-28T18:56:45.532Z,100269.53
2023-02-28T18:59:13.662Z,100272.22
2023-02-28T19:01:41.737Z,100276.50
2023-02-28T19:04:14.054Z,100280.50
2023-02-28T19:06:42.488Z,100275.22
2023-02-28T19:09:11.239Z,100267.94
2023-02-28T19:11:39.846Z,100269.62
2023-02-28T19:14:09.752Z,100265.59
2023-02-28T19:16:39.035Z,100262.00
2023-02-28T19:19:07.982Z,100269.47
2023-02-28T19:21:36.952Z,100269.88
2023-02-28T19:24:05.782Z,100273.88
2023-02-28T19:26:33.990Z,100271.37
2023-02-28T19:29:05.574Z,100276.59
2023-02-28T19:31:34.244Z,100274.72
2023-02-28T19:34:02.432Z,100269.38
2023-02-28T19:36:30.501Z,100278.34
2023-02-28T19:38:58.846Z,100279.22
2023-02-28T19:41:27.267Z,100273.41
2023-02-28T19:43:55.515Z,100271.00
2023-02-28T19:46:23.944Z,100271.28
2023-02-28T19:48:55.293Z,100278.91
2023-02-28T19:51:24.115Z,100271.66
2023-02-28T19:53:52.422Z,100268.38
2023-02-28T19:56:20.922Z,100272.50
2023-02-28T19:58:49.365Z,100279.41
2023-02-28T20:01:19.500Z,100277.78
2023-02-28T20:03:49.729Z,100276.66
2023-02-28T20:06:18.113Z,100281.41
2023-02-28T20:08:46.249Z,100275.81
2023-02-28T20:11:16.927Z,100281.72
2023-02-28T20:13:45.736Z,100280.63
2023-02-28T20:16:15.199Z,100276.50
2023-02-28T20:18:47.096Z,100282.81
2023-02-28T20:21:16.725Z,100273.81
2023-02-28T20:23:46.128Z,100272.44
2023-02-28T20:26:14.273Z,100274.59
2023-02-28T20:28:43.223Z,100271.22
2023-02-28T20:31:16.982Z,100265.47
2023-02-28T20:33:46.948Z,100268.78
2023-02-28T20:36:16.269Z,100266.16
2023-02-28T20:38:44.389Z,100269.50
2023-02-28T20:41:13.281Z,100268.28
2023-02-28T20:43:42.053Z,100269.25
2023-02-28T20:46:10.740Z,100269.75
2023-02-28T20:48:39.693Z,100265.56
2023-02-28T20:51:08.530Z,100276.12
2023-02-28T20:53:36.891Z,100270.38
2023-02-28T20:56:11.440Z,100272.47
2023-02-28T20:58:40.147Z,100275.22
2023-02-28T21:01:17.046Z,100277.50
2023-02-28T21:03:47.764Z,100273.63
2023-02-28T21:06:17.447Z,100270.59
2023-02-28T21:08:46.123Z,100271.31
2023-02-28T21:11:19.696Z,100274.13
2023-02-28T21:13:48.518Z,100276.47
2023-02-28T21:16:19.444Z,100277.00
2023-02-28T21:18:48.904Z,100271.00
2023-02-28T21:21:19.579Z,100267.97
2023-02-28T21:23:49.085Z,100274.37
2023-02-28T21:26:22.707Z,100274.91
2023-02-28T21:28:56.192Z,100259.69
2023-02-28T21:31:25.662Z,100257.28
2023-02-28T21:33:55.765Z,100259.84
2023-02-28T21:36:27.376Z,100257.06
2023-02-28T21:38:57.703Z,100263.28
2023-02-28T21:41:26.481Z,100257.81
2023-02-28T21:43:55.627Z,100267.19
2023-02-28T21:46:26.920Z,100258.34
2023-02-28T21:48:55.816Z,100262.59
2023-02-28T21:51:27.111Z,100255.53
2023-02-28T21:53:55.266Z,100264.72
2023-02-28T21:56:29.905Z,100270.59
2023-02-28T21:59:02.152Z,100264.72
2023-02-28T22:01:34.918Z,100259.03
2023-02-28T22:04:05.934Z,100252.38
2023-02-28T22:06:41.529Z,100258.25
2023-02-28T22:09:10.588Z,100261.72
2023-02-28T22:11:39.392Z,100261.56
2023-02-28T22:14:09.024Z,100262.44
2023-02-28T22:16:50.867Z,100264.69
2023-02-28T22:19:20.858Z,100262.41
2023-02-28T22:21:50.116Z,100265.22
2023-02-28T22:24:20.898Z,100270.03
2023-02-28T22:26:50.323Z,100275.03
2023-02-28T22:29:18.273Z,100273.09
2023-02-28T22:31:46.425Z,100270.09
2023-02-28T22:34:14.910Z,100264.28
2023-02-28T22:36:44.037Z,100261.50
2023-02-28T22:39:12.436Z,100264.44
2023-02-28T22:41:40.978Z,100267.13
2023-02-28T22:44:09.139Z,100260.44
2023-02-28T22:46:37.570Z,100258.13
2023-02-28T22:49:06.807Z,100257.50
2023-02-28T22:51:35.244Z,100256.09
2023-02-28T22:54:04.066Z,100256.19
2023-02-28T22:56:32.916Z,100253.38
2023-02-28T22:59:01.804Z,100256.91
2023-02-28T23:01:32.201Z,100263.38
2023-02-28T23:04:01.409Z,100261.28
2023-02-28T23:06:35.762Z,100256.31
2023-02-28T23:09:06.621Z,100256.75
2023-02-28T23:11:38.231Z,100254.47
2023-02-28T23:14:06.927Z,100255.69
2023-02-28T23:16:37.288Z,100255.47
2023-02-28T23:19:11.086Z,100244.72
2023-02-28T23:21:39.855Z,100244.63
2023-02-28T23:24:12.164Z,100244.94
2023-02-28T23:26:44.128Z,100237.81
2023-02-28T23:29:14.008Z,100239.38
2023-02-28T23:31:42.691Z,100242.28
2023-02-28T23:34:11.224Z,100242.41
2023-02-28T23:36:43.727Z,100247.13
2023-02-28T23:39:13.874Z,100240.78
2023-02-28T23:41:41.906Z,100240.53
2023-02-28T23:44:13.891Z,100245.88
2023-02-28T23:46:42.551Z,100240.78
2023-02-28T23:49:10.624Z,100241.31
2023-02-28T23:51:38.552Z,100248.25
2023-02-28T23:54:07.674Z,100245.19
2023-02-28T23:56:35.655Z,100247.50
2023-02-28T23:59:03.941Z,100246.25
